Time;durP1;ratioP1;P1;durP2;ratioP2;P2;SDS_P1;SDS_P2;PMS_P1;PMS_P2;Temp;Humidity;BMP_temperature;BMP_pressure;BME280_temperature;BME280_humidity;BME280_pressure;Samples;Min_cycle;Max_cycle;Signal;HPM_P1;HPM_P2
2024/02/08 00:02:16;;;;;;;18.13;6.15;;;1.00;99.90;;;;;;5075400;28;20500;-53
2024/02/08 00:04:42;;;;;;;17.35;5.22;;;1.00;99.90;;;;;;5076011;28;20143;-50
2024/02/08 00:07:07;;;;;;;15.55;5.65;;;1.00;99.90;;;;;;5073753;28;20061;-52
2024/02/08 00:09:33;;;;;;;21.73;6.40;;;1.00;99.90;;;;;;5070644;28;20103;-50
2024/02/08 00:11:58;;;;;;;18.80;5.35;;;1.00;99.90;;;;;;5076042;28;20031;-53
2024/02/08 00:14:24;;;;;;;17.15;5.93;;;0.90;99.90;;;;;;5071676;28;20009;-52
2024/02/08 00:16:49;;;;;;;16.63;5.38;;;0.90;99.90;;;;;;5075666;28;20044;-54
2024/02/08 00:19:15;;;;;;;19.60;5.32;;;0.90;99.90;;;;;;5073964;28;20373;-53
2024/02/08 00:21:41;;;;;;;23.20;5.50;;;0.80;99.90;;;;;;5073581;28;20028;-53
2024/02/08 00:24:07;;;;;;;15.98;5.50;;;0.80;99.90;;;;;;5071026;28;20394;-51
2024/02/08 00:26:32;;;;;;;24.90;6.38;;;0.90;99.90;;;;;;5068383;28;20019;-53
2024/02/08 00:28:58;;;;;;;17.65;5.25;;;0.90;99.90;;;;;;5068030;28;20531;-53
2024/02/08 00:31:25;;;;;;;23.52;7.35;;;0.90;99.90;;;;;;5069420;28;20024;-51
2024/02/08 00:33:50;;;;;;;16.20;5.68;;;0.90;99.90;;;;;;5071843;28;20048;-53
2024/02/08 00:36:16;;;;;;;18.60;5.95;;;0.90;99.90;;;;;;5075116;28;20067;-50
2024/02/08 00:38:44;;;;;;;20.05;5.95;;;1.00;99.90;;;;;;5073137;28;20043;-51
2024/02/08 00:41:10;;;;;;;16.15;5.05;;;1.00;99.90;;;;;;5073702;28;20268;-53
2024/02/08 00:43:39;;;;;;;22.52;6.50;;;0.90;99.90;;;;;;5074859;28;20194;-52
2024/02/08 00:46:04;;;;;;;22.83;5.80;;;0.90;99.90;;;;;;5071841;28;20342;-52
2024/02/08 00:48:31;;;;;;;21.88;5.20;;;1.00;99.90;;;;;;5074542;28;20051;-53
2024/02/08 00:50:56;;;;;;;16.35;5.10;;;1.00;99.90;;;;;;5077000;28;20052;-54
2024/02/08 00:53:22;;;;;;;22.17;4.90;;;1.00;99.90;;;;;;5071981;28;20418;-53
2024/02/08 00:55:49;;;;;;;19.92;5.35;;;1.00;99.90;;;;;;5073440;28;20303;-54
2024/02/08 00:58:15;;;;;;;18.08;5.07;;;0.90;99.90;;;;;;5072097;28;20263;-51
2024/02/08 01:00:42;;;;;;;12.57;4.90;;;0.90;99.90;;;;;;5074301;28;20078;-51
2024/02/08 01:03:07;;;;;;;16.13;5.85;;;0.90;99.90;;;;;;5068903;28;20035;-50
2024/02/08 01:05:33;;;;;;;16.42;5.05;;;0.90;99.90;;;;;;5071570;28;20046;-51
2024/02/08 01:08:00;;;;;;;24.48;5.18;;;0.80;99.90;;;;;;5073298;28;20469;-50
2024/02/08 01:10:26;;;;;;;12.82;4.70;;;0.90;99.90;;;;;;5071288;28;20021;-53
2024/02/08 01:12:53;;;;;;;19.30;6.45;;;0.90;99.90;;;;;;5073379;28;20028;-54
2024/02/08 01:15:19;;;;;;;11.07;4.82;;;0.90;99.90;;;;;;5068747;28;20020;-54
2024/02/08 01:17:45;;;;;;;12.57;5.38;;;0.80;99.90;;;;;;5068439;28;20091;-52
2024/02/08 01:20:11;;;;;;;12.88;5.55;;;0.80;99.90;;;;;;5070816;28;20108;-52
2024/02/08 01:22:36;;;;;;;19.15;4.70;;;0.90;99.90;;;;;;5070535;28;20052;-52
2024/02/08 01:25:02;;;;;;;12.40;4.35;;;0.90;99.90;;;;;;5070765;28;20033;-51
2024/02/08 01:27:29;;;;;;;14.75;5.22;;;0.80;99.90;;;;;;5071173;28;20035;-52
2024/02/08 01:29:59;;;;;;;16.63;5.70;;;0.80;99.90;;;;;;5068282;28;20012;-52
2024/02/08 01:32:28;;;;;;;15.52;5.20;;;0.90;99.90;;;;;;5065133;28;20016;-50
2024/02/08 01:34:58;;;;;;;12.75;4.90;;;0.90;99.90;;;;;;5068049;28;20470;-51
2024/02/08 01:37:24;;;;;;;;;;;1.00;99.90;;;;;;5066739;28;20024;-53
2024/02/08 01:39:49;;;;;;;15.55;5.47;;;1.00;99.90;;;;;;5077287;28;20053;-53
2024/02/08 01:42:16;;;;;;;16.45;5.13;;;1.00;99.90;;;;;;5078841;28;20174;-53
2024/02/08 01:44:45;;;;;;;14.38;6.32;;;1.00;99.90;;;;;;5068587;28;20133;-51
2024/02/08 01:47:11;;;;;;;19.63;6.13;;;1.00;99.90;;;;;;5074683;28;20113;-54
2024/02/08 01:49:37;;;;;;;11.10;4.72;;;0.90;99.90;;;;;;5068250;28;20024;-53
2024/02/08 01:52:04;;;;;;;19.70;5.45;;;1.00;99.90;;;;;;5067762;28;20389;-51
2024/02/08 01:54:30;;;;;;;20.73;5.15;;;0.90;99.90;;;;;;5071207;28;20165;-54
2024/02/08 01:56:59;;;;;;;16.27;4.85;;;0.90;99.90;;;;;;5069557;28;20028;-53
2024/02/08 01:59:25;;;;;;;16.52;4.60;;;0.80;99.90;;;;;;5069420;28;20516;-52
2024/02/08 02:01:52;;;;;;;12.13;4.63;;;0.90;99.90;;;;;;5068471;28;20033;-50
2024/02/08 02:04:17;;;;;;;13.63;4.40;;;0.90;99.90;;;;;;5069542;28;20052;-53
2024/02/08 02:06:44;;;;;;;13.27;4.57;;;0.90;99.90;;;;;;5071804;28;20048;-53
2024/02/08 02:09:10;;;;;;;13.25;4.72;;;1.00;99.90;;;;;;5072527;28;20455;-54
2024/02/08 02:11:47;;;;;;;21.80;7.72;;;1.00;99.90;;;;;;5069464;28;20035;-50
2024/02/08 02:14:17;;;;;;;19.75;5.65;;;1.00;99.90;;;;;;5068255;28;20221;-54
2024/02/08 02:16:43;;;;;;;20.35;4.82;;;1.00;99.90;;;;;;5068973;28;20039;-54
2024/02/08 02:19:08;;;;;;;17.45;5.75;;;1.00;99.90;;;;;;5065662;28;20529;-53
2024/02/08 02:21:35;;;;;;;15.77;5.38;;;1.00;99.90;;;;;;5066618;28;20043;-52
2024/02/08 02:24:01;;;;;;;16.48;5.18;;;0.90;99.90;;;;;;5068279;28;20031;-54
2024/02/08 02:26:28;;;;;;;21.05;6.35;;;1.00;99.90;;;;;;5065960;28;20366;-54
2024/02/08 02:28:54;;;;;;;17.40;4.97;;;1.00;99.90;;;;;;5070254;28;20033;-54
2024/02/08 02:31:23;;;;;;;17.63;5.70;;;0.90;99.90;;;;;;5060022;28;20147;-54
2024/02/08 02:33:50;;;;;;;15.77;5.00;;;0.90;99.90;;;;;;5068497;28;20027;-54
2024/02/08 02:36:17;;;;;;;14.90;4.88;;;1.00;99.90;;;;;;5067506;28;20095;-54
2024/02/08 02:38:45;;;;;;;17.08;5.15;;;1.00;99.90;;;;;;5068908;28;20047;-52
2024/02/08 02:41:10;;;;;;;16.60;5.15;;;1.00;99.90;;;;;;5067052;28;20285;-51
2024/02/08 02:43:37;;;;;;;15.05;4.43;;;1.00;99.90;;;;;;5069889;28;20385;-54
2024/02/08 02:46:05;;;;;;;17.88;5.95;;;1.00;99.90;;;;;;5068704;28;20315;-54
2024/02/08 02:48:40;;;;;;;14.57;4.30;;;1.10;99.90;;;;;;5069844;28;20019;-53
2024/02/08 02:51:11;;;;;;;19.67;5.60;;;1.10;99.90;;;;;;5071422;28;20021;-53
2024/02/08 02:53:39;;;;;;;20.95;6.28;;;1.00;99.90;;;;;;5066819;28;20067;-52
2024/02/08 02:56:08;;;;;;;9.90;4.50;;;1.00;99.90;;;;;;5068093;28;20028;-54
2024/02/08 02:58:35;;;;;;;15.45;4.53;;;1.00;99.90;;;;;;5068065;28;20066;-53
2024/02/08 03:01:06;;;;;;;12.70;4.20;;;1.10;99.90;;;;;;5068607;28;20099;-53
2024/02/08 03:03:40;;;;;;;23.92;6.13;;;1.00;99.90;;;;;;5068755;28;20099;-52
2024/02/08 03:06:13;;;;;;;10.55;4.32;;;1.10;99.90;;;;;;5067254;28;20096;-51
2024/02/08 03:08:43;;;;;;;11.73;4.95;;;1.10;99.90;;;;;;5068935;28;20020;-54
2024/02/08 03:11:13;;;;;;;11.55;4.72;;;1.10;99.90;;;;;;5066425;28;20102;-52
2024/02/08 03:13:43;;;;;;;13.25;5.30;;;1.00;99.90;;;;;;5066670;28;20017;-51
2024/02/08 03:16:16;;;;;;;26.30;6.00;;;1.00;99.90;;;;;;5066514;28;20019;-52
2024/02/08 03:18:46;;;;;;;16.92;6.03;;;1.10;99.90;;;;;;5065192;28;20032;-53
2024/02/08 03:21:17;;;;;;;15.52;6.15;;;1.20;99.90;;;;;;5068226;28;20487;-52
2024/02/08 03:23:47;;;;;;;23.15;5.63;;;1.20;99.90;;;;;;5066652;28;20062;-50
2024/02/08 03:26:16;;;;;;;14.75;4.45;;;1.10;99.90;;;;;;5065348;28;20093;-51
2024/02/08 03:28:46;;;;;;;18.70;5.53;;;1.10;99.90;;;;;;5067257;28;20028;-51
2024/02/08 03:31:14;;;;;;;12.35;4.57;;;1.10;99.90;;;;;;5066231;28;20069;-53
2024/02/08 03:33:39;;;;;;;9.68;4.45;;;1.20;99.90;;;;;;5067147;28;20020;-51
2024/02/08 03:36:08;;;;;;;11.05;5.30;;;1.10;99.90;;;;;;5067714;28;20035;-52
2024/02/08 03:38:34;;;;;;;22.38;5.05;;;1.10;99.90;;;;;;5068332;28;20222;-52
2024/02/08 03:41:00;;;;;;;17.48;5.75;;;1.10;99.90;;;;;;5067261;28;20024;-50
2024/02/08 03:43:26;;;;;;;27.00;11.75;;;1.20;99.90;;;;;;5068094;28;20021;-52
2024/02/08 03:45:57;;;;;;;18.05;11.77;;;1.20;99.90;;;;;;5068233;28;20031;-51
2024/02/08 03:48:23;;;;;;;18.77;6.93;;;1.30;99.90;;;;;;5066709;28;20032;-51
2024/02/08 03:50:51;;;;;;;19.35;6.88;;;1.30;99.90;;;;;;5067839;28;20024;-54
2024/02/08 03:53:20;;;;;;;18.45;4.85;;;1.30;99.90;;;;;;5067939;28;20099;-51
2024/02/08 03:55:51;;;;;;;14.60;6.20;;;1.40;99.90;;;;;;5066712;28;20020;-51
2024/02/08 03:58:18;;;;;;;16.10;4.90;;;1.30;99.90;;;;;;5067746;28;20024;-51
2024/02/08 04:00:46;;;;;;;17.73;5.10;;;1.40;99.90;;;;;;5066831;28;20397;-50
2024/02/08 04:03:33;;;;;;;12.13;4.43;;;1.40;99.90;;;;;;5066958;28;20126;-53
2024/02/08 04:05:59;;;;;;;17.15;4.72;;;1.40;99.90;;;;;;5066534;28;20032;-49
2024/02/08 04:08:53;;;;;;;17.90;5.82;;;1.50;99.90;;;;;;5067396;28;20430;-52
2024/02/08 04:55:14;;;;;;;19.80;5.03;;;1.70;99.90;;;;;;5068800;28;20070;-52
2024/02/08 04:57:40;;;;;;;9.38;4.18;;;1.70;99.90;;;;;;5067437;28;20422;-51
2024/02/08 05:00:12;;;;;;;13.32;4.93;;;1.70;99.90;;;;;;5070158;28;20033;-52
2024/02/08 05:02:38;;;;;;;15.82;4.97;;;1.70;99.90;;;;;;5088803;28;20016;-53
2024/02/08 05:05:07;;;;;;;15.27;4.90;;;1.80;99.90;;;;;;5087921;28;20047;-50
2024/02/08 05:07:32;;;;;;;17.15;5.90;;;1.80;99.90;;;;;;5073938;28;20115;-52
2024/02/08 05:09:58;;;;;;;12.88;5.32;;;1.80;99.90;;;;;;5071834;28;20108;-51
2024/02/08 05:12:24;;;;;;;21.63;5.75;;;1.80;99.90;;;;;;5080317;28;20507;-52
2024/02/08 05:14:50;;;;;;;21.83;5.47;;;1.80;99.90;;;;;;5073587;28;20222;-53
2024/02/08 05:17:15;;;;;;;24.45;6.05;;;1.80;99.90;;;;;;5069936;28;20186;-51
2024/02/08 05:19:43;;;;;;;19.48;7.30;;;1.80;99.90;;;;;;5074185;28;20158;-51
2024/02/08 05:22:11;;;;;;;11.88;5.00;;;1.80;99.90;;;;;;5070207;28;20452;-49
2024/02/08 05:24:36;;;;;;;18.33;5.05;;;1.80;99.90;;;;;;5079486;28;20031;-48
2024/02/08 05:27:02;;;;;;;13.45;5.28;;;1.80;99.90;;;;;;5077587;28;20032;-51
2024/02/08 05:29:28;;;;;;;21.77;5.82;;;1.80;99.90;;;;;;5068548;28;20560;-49
2024/02/08 05:31:54;;;;;;;19.30;5.38;;;1.80;99.90;;;;;;5070749;28;20060;-49
2024/02/08 05:34:21;;;;;;;22.90;5.75;;;1.80;99.90;;;;;;5070453;28;20536;-51
2024/02/08 05:36:48;;;;;;;17.35;5.35;;;1.80;99.90;;;;;;5078246;28;20040;-48
2024/02/08 05:39:24;;;;;;;26.13;6.47;;;1.90;99.90;;;;;;5078941;28;20036;-56
2024/02/08 05:41:54;;;;;;;27.60;5.55;;;1.90;99.90;;;;;;5072731;28;20099;-54
2024/02/08 05:44:20;;;;;;;16.65;6.13;;;1.90;99.90;;;;;;5078553;28;20115;-53
2024/02/08 05:46:47;;;;;;;14.70;5.35;;;2.00;99.90;;;;;;5079609;28;20020;-54
2024/02/08 05:49:13;;;;;;;24.25;6.10;;;2.00;99.90;;;;;;5078970;28;20498;-53
2024/02/08 05:51:51;;;;;;;17.52;5.80;;;2.00;99.90;;;;;;5072225;28;20103;-52
2024/02/08 05:54:31;;;;;;;18.98;6.00;;;2.10;99.90;;;;;;5075788;28;20070;-51
2024/02/08 05:57:03;;;;;;;12.68;5.07;;;2.10;99.90;;;;;;5071773;28;20024;-52
2024/02/08 05:59:29;;;;;;;15.70;5.05;;;2.10;99.90;;;;;;5063914;28;20465;-52
2024/02/08 06:01:58;;;;;;;23.17;7.60;;;2.10;99.90;;;;;;5064724;28;20060;-53
2024/02/08 06:04:25;;;;;;;11.38;4.72;;;2.10;99.90;;;;;;5068153;28;20020;-52
2024/02/08 06:07:07;;;;;;;18.25;6.20;;;2.10;99.90;;;;;;5066405;28;20024;-53
2024/02/08 06:12:16;;;;;;;14.88;4.75;;;2.20;99.90;;;;;;5069457;28;20021;-54
2024/02/08 06:14:42;;;;;;;21.70;5.57;;;2.10;99.90;;;;;;5064758;28;20021;-55
2024/02/08 06:17:11;;;;;;;10.90;4.40;;;2.10;99.90;;;;;;5070674;28;20474;-54
2024/02/08 06:19:39;;;;;;;17.33;5.10;;;2.20;99.90;;;;;;5068955;28;20438;-54
2024/02/08 06:22:22;;;;;;;16.13;5.28;;;2.20;99.90;;;;;;5067337;28;20530;-54
2024/02/08 06:24:54;;;;;;;17.05;5.80;;;2.20;99.90;;;;;;5067392;28;20102;-54
2024/02/08 06:27:25;;;;;;;12.68;5.07;;;2.20;99.90;;;;;;5070787;28;20420;-54
2024/02/08 06:29:51;;;;;;;21.40;5.25;;;2.20;99.90;;;;;;5066774;28;20032;-53
2024/02/08 06:33:07;;;;;;;16.52;6.20;;;2.20;99.90;;;;;;5076325;28;20016;-55
2024/02/08 06:35:11;;;;;;;15.68;5.32;;;2.20;99.90;;;;;;5069858;28;20124;-54
2024/02/08 06:37:44;;;;;;;12.23;5.13;;;2.20;99.90;;;;;;5065873;28;20068;-56
2024/02/08 06:40:24;;;;;;;28.60;6.78;;;2.20;99.90;;;;;;5073070;28;20048;-57
2024/02/08 06:45:48;;;;;;;13.38;5.35;;;2.20;99.90;;;;;;5073087;28;20043;-54
2024/02/08 06:48:35;;;;;;;11.85;4.68;;;2.20;99.90;;;;;;5082908;28;20017;-54
2024/02/08 07:37:39;;;;;;;27.75;6.57;;;2.60;99.90;;;;;;5067319;28;20071;-55
2024/02/08 07:40:24;;;;;;;19.05;6.05;;;2.60;99.90;;;;;;5073498;28;20468;-54
2024/02/08 07:45:41;;;;;;;14.07;5.50;;;2.70;99.90;;;;;;5079630;28;20446;-55
2024/02/08 07:48:10;;;;;;;17.90;6.00;;;2.60;99.90;;;;;;5066283;28;20124;-54
2024/02/08 07:50:44;;;;;;;20.48;5.88;;;2.60;99.90;;;;;;5072532;28;20050;-53
2024/02/08 07:53:19;;;;;;;19.73;6.82;;;2.60;99.90;;;;;;5071703;28;20021;-53
2024/02/08 07:55:50;;;;;;;26.20;6.60;;;2.60;99.90;;;;;;5082179;28;20020;-54
2024/02/08 07:58:18;;;;;;;21.60;6.15;;;2.60;99.90;;;;;;5078808;28;20106;-55
2024/02/08 08:00:44;;;;;;;14.35;5.75;;;2.60;99.90;;;;;;5086967;28;20430;-53
2024/02/08 08:03:15;;;;;;;13.38;4.75;;;2.60;99.90;;;;;;5083954;28;20039;-55
2024/02/08 08:05:44;;;;;;;16.42;6.00;;;2.60;99.90;;;;;;5068859;28;20493;-55
2024/02/08 08:08:28;;;;;;;11.70;4.53;;;2.60;99.90;;;;;;5084099;28;20023;-55
2024/02/08 08:11:02;;;;;;;20.58;6.35;;;2.70;99.90;;;;;;5064765;28;20024;-54
2024/02/08 08:13:52;;;;;;;20.35;6.15;;;2.70;99.90;;;;;;5079969;28;20044;-54
2024/02/08 08:19:07;;;;;;;18.67;5.80;;;2.80;99.90;;;;;;5076157;28;20485;-54
2024/02/08 08:24:28;;;;;;;20.10;5.68;;;3.00;99.90;;;;;;5074566;28;20039;-54
2024/02/08 08:29:43;;;;;;;11.32;5.10;;;3.10;99.90;;;;;;5071158;28;20040;-55
2024/02/08 08:38:28;;;;;;;15.40;5.90;;;3.20;99.90;;;;;;5016393;28;20091;-55
2024/02/08 08:41:00;;;;;;;23.27;5.25;;;3.20;99.90;;;;;;5009152;28;20038;-54
2024/02/08 08:43:26;;;;;;;18.50;6.03;;;3.20;99.90;;;;;;5060643;28;20052;-55
2024/02/08 08:45:59;;;;;;;18.75;6.35;;;3.30;99.90;;;;;;5080847;28;20188;-54
2024/02/08 08:48:29;;;;;;;12.38;5.43;;;3.40;99.90;;;;;;5074621;28;20482;-55
2024/02/08 08:50:56;;;;;;;17.52;5.18;;;3.40;99.90;;;;;;5084524;28;20024;-55
2024/02/08 08:53:27;;;;;;;14.70;4.82;;;3.40;99.90;;;;;;5070821;28;20469;-55
2024/02/08 08:55:54;;;;;;;11.43;4.15;;;3.50;99.90;;;;;;5080904;28;20039;-55
2024/02/08 08:58:22;;;;;;;18.23;5.43;;;3.50;99.90;;;;;;5069019;28;20112;-53
2024/02/08 09:00:58;;;;;;;20.98;6.80;;;3.60;99.90;;;;;;5069681;28;20043;-55
2024/02/08 09:03:27;;;;;;;21.60;6.63;;;3.70;99.90;;;;;;5074415;28;20443;-55
2024/02/08 09:05:59;;;;;;;17.17;6.43;;;3.70;99.90;;;;;;5069760;28;20075;-55
2024/02/08 09:08:44;;;;;;;16.38;6.13;;;3.70;99.90;;;;;;5067575;28;20452;-55
2024/02/08 09:11:12;;;;;;;19.25;5.95;;;3.80;99.90;;;;;;5068643;28;20093;-54
2024/02/08 09:13:51;;;;;;;12.05;5.40;;;3.90;99.90;;;;;;5082891;28;20012;-55
2024/02/08 09:21:32;;;;;;;24.27;6.20;;;3.90;99.90;;;;;;5071831;28;20068;-55
2024/02/08 09:24:07;;;;;;;22.73;5.57;;;4.00;99.90;;;;;;5077876;28;20484;-55
2024/02/08 09:26:48;;;;;;;10.95;4.68;;;4.00;99.90;;;;;;5074107;28;20469;-55
2024/02/08 09:29:26;;;;;;;17.70;5.18;;;4.10;99.90;;;;;;5080660;28;20031;-55
2024/02/08 09:31:58;;;;;;;10.35;5.30;;;4.10;99.90;;;;;;5073802;28;20554;-55
2024/02/08 09:34:37;;;;;;;20.80;5.75;;;4.20;99.90;;;;;;5077504;28;20101;-55
2024/02/08 09:37:07;;;;;;;18.83;5.75;;;4.20;99.90;;;;;;5076349;28;20524;-54
2024/02/08 09:39:53;;;;;;;19.00;6.25;;;4.30;99.90;;;;;;5075617;28;20033;-55
2024/02/08 09:42:37;;;;;;;18.65;6.40;;;4.40;99.90;;;;;;5074213;28;20028;-54
2024/02/08 09:47:54;;;;;;;20.77;6.13;;;4.50;99.90;;;;;;5063721;28;20090;-56
2024/02/08 09:50:35;;;;;;;26.95;7.38;;;4.50;99.90;;;;;;5073226;28;20089;-55
2024/02/08 09:53:15;;;;;;;12.95;5.10;;;4.50;99.90;;;;;;5071235;28;20026;-55
2024/02/08 09:55:43;;;;;;;18.48;5.75;;;4.50;99.90;;;;;;5077247;28;20077;-54
2024/02/08 09:58:10;;;;;;;20.27;6.30;;;4.50;99.90;;;;;;5075804;28;20116;-54
2024/02/08 10:00:54;;;;;;;22.42;7.10;;;4.50;99.90;;;;;;5072731;28;20032;-54
2024/02/08 10:03:36;;;;;;;12.38;5.85;;;4.60;99.90;;;;;;5077290;28;20205;-55
2024/02/08 10:06:12;;;;;;;16.02;5.60;;;4.70;99.90;;;;;;5075049;28;20055;-54
2024/02/08 10:08:51;;;;;;;13.82;5.25;;;4.80;99.90;;;;;;5078943;28;20017;-55
2024/02/08 10:11:24;;;;;;;17.80;6.00;;;4.90;99.90;;;;;;5068740;28;20545;-55
2024/02/08 10:13:56;;;;;;;14.05;5.13;;;5.10;99.90;;;;;;5066924;28;20021;-54
2024/02/08 10:19:23;;;;;;;16.48;5.20;;;5.40;99.90;;;;;;5074439;28;20598;-55
2024/02/08 10:21:56;;;;;;;12.48;4.68;;;5.60;99.90;;;;;;5072671;28;20040;-55
2024/02/08 10:24:27;;;;;;;13.95;5.20;;;5.80;99.90;;;;;;5071606;28;20028;-55
2024/02/08 10:26:58;;;;;;;14.60;5.18;;;6.00;99.90;;;;;;5070303;28;20098;-55
2024/02/08 10:29:25;;;;;;;18.52;5.70;;;6.10;99.90;;;;;;5066512;28;20052;-55
2024/02/08 10:31:59;;;;;;;12.30;4.80;;;6.20;99.90;;;;;;5067820;28;20028;-56
2024/02/08 10:34:33;;;;;;;17.00;6.45;;;6.30;99.90;;;;;;5066587;28;20017;-56
2024/02/08 10:36:59;;;;;;;20.02;5.13;;;6.30;99.90;;;;;;5067324;28;20100;-55
2024/02/08 10:39:25;;;;;;;12.32;4.88;;;6.30;99.90;;;;;;5069215;28;20519;-53
2024/02/08 10:41:57;;;;;;;16.30;4.82;;;6.20;99.90;;;;;;5067305;28;20037;-53
2024/02/08 10:44:27;;;;;;;19.80;6.25;;;6.00;99.90;;;;;;5066665;28;20031;-54
2024/02/08 10:47:06;;;;;;;12.48;4.15;;;5.90;99.90;;;;;;5076036;28;20020;-53
2024/02/08 10:49:51;;;;;;;12.15;4.65;;;5.80;99.90;;;;;;5075525;28;20060;-54
2024/02/08 10:52:19;;;;;;;18.40;5.13;;;5.90;99.90;;;;;;5072520;28;20024;-53
2024/02/08 10:54:51;;;;;;;15.70;4.40;;;5.80;99.90;;;;;;5066724;28;20012;-53
2024/02/08 10:57:39;;;;;;;12.05;4.78;;;5.90;99.90;;;;;;5074547;28;20116;-53
2024/02/08 11:03:00;;;;;;;18.73;5.90;;;5.90;99.90;;;;;;5070258;28;20624;-54
2024/02/08 11:07:53;;;;;;;14.05;5.13;;;5.80;99.90;;;;;;5067387;28;20517;-52
2024/02/08 11:10:31;;;;;;;14.63;5.40;;;6.00;99.90;;;;;;5075586;28;20024;-53
2024/02/08 11:13:02;;;;;;;18.38;4.50;;;6.20;99.90;;;;;;5065788;28;20384;-53
2024/02/08 11:15:30;;;;;;;14.32;4.78;;;6.40;99.90;;;;;;5071117;28;20354;-54
2024/02/08 11:17:58;;;;;;;13.85;4.75;;;6.50;99.90;;;;;;5075519;28;20127;-54
2024/02/08 11:20:33;;;;;;;21.75;5.75;;;6.60;99.90;;;;;;5071470;28;20312;-54
2024/02/08 11:23:09;;;;;;;23.88;5.55;;;6.70;99.90;;;;;;5074756;28;20033;-53
2024/02/08 11:25:36;;;;;;;21.20;6.35;;;6.80;99.90;;;;;;5070892;28;20062;-54
2024/02/08 11:28:10;;;;;;;13.68;5.22;;;7.10;99.90;;;;;;5069502;28;20035;-55
2024/02/08 11:30:39;;;;;;;18.17;5.40;;;7.20;99.90;;;;;;5067787;28;20236;-54
2024/02/08 11:33:12;;;;;;;21.08;5.30;;;7.30;99.90;;;;;;5076762;28;20570;-55
2024/02/08 11:35:45;;;;;;;26.33;4.68;;;7.80;99.90;;;;;;5074617;28;20040;-54
2024/02/08 11:38:21;;;;;;;13.68;4.82;;;8.10;99.90;;;;;;5074415;28;20051;-55
2024/02/08 11:40:50;;;;;;;22.40;5.57;;;8.30;99.90;;;;;;5066574;28;20024;-54
2024/02/08 11:43:26;;;;;;;14.10;4.65;;;8.50;99.90;;;;;;5069935;28;20032;-55
2024/02/08 11:45:54;;;;;;;17.95;6.00;;;8.80;99.90;;;;;;5074528;28;20024;-55
2024/02/08 11:48:41;;;;;;;13.68;4.93;;;8.80;99.90;;;;;;5070092;28;20535;-55
2024/02/08 11:51:25;;;;;;;14.88;4.03;;;8.80;99.90;;;;;;5066579;28;20243;-55
2024/02/08 11:54:01;;;;;;;13.60;4.25;;;8.60;99.90;;;;;;5073168;28;20398;-56
2024/02/08 11:56:31;;;;;;;15.48;4.03;;;8.50;99.90;;;;;;5062606;28;20031;-56
2024/02/08 11:58:58;;;;;;;11.20;3.92;;;8.30;99.90;;;;;;5062964;28;20035;-56
2024/02/08 12:01:26;;;;;;;12.18;3.45;;;8.10;99.90;;;;;;5069912;28;20032;-56
2024/02/08 12:03:53;;;;;;;14.02;3.83;;;8.10;99.90;;;;;;5069651;28;20272;-56
2024/02/08 12:06:22;;;;;;;15.27;3.45;;;7.90;99.90;;;;;;5073874;28;20100;-55
2024/02/08 12:09:04;;;;;;;13.57;4.00;;;8.00;99.90;;;;;;5076248;28;20069;-55
2024/02/08 12:11:32;;;;;;;13.95;3.65;;;8.10;99.90;;;;;;5060929;28;20024;-56
2024/02/08 12:14:10;;;;;;;14.63;4.15;;;8.30;99.90;;;;;;5069247;28;20028;-56
2024/02/08 12:16:57;;;;;;;13.60;3.75;;;8.30;99.90;;;;;;5066906;28;20012;-56
2024/02/08 12:19:24;;;;;;;19.67;4.40;;;8.50;99.90;;;;;;5060298;28;20032;-56
2024/02/08 12:21:57;;;;;;;13.55;4.05;;;8.40;99.90;;;;;;5076025;28;20056;-54
2024/02/08 12:24:24;;;;;;;14.50;3.83;;;8.30;99.90;;;;;;5063512;28;20032;-55
2024/02/08 12:26:54;;;;;;;16.23;3.67;;;8.10;99.90;;;;;;5069276;28;20569;-56
2024/02/08 12:29:24;;;;;;;11.00;3.53;;;8.10;99.90;;;;;;5070749;28;20032;-55
2024/02/08 12:31:54;;;;;;;16.15;4.20;;;7.90;99.90;;;;;;5068507;28;20027;-55
2024/02/08 12:34:31;;;;;;;15.15;3.95;;;7.90;99.90;;;;;;5067605;28;20036;-55
2024/02/08 12:37:04;;;;;;;14.60;3.63;;;7.70;99.90;;;;;;5070141;28;20530;-56
2024/02/08 12:39:34;;;;;;;16.15;4.10;;;7.60;99.90;;;;;;5074027;28;20055;-54
2024/02/08 12:42:01;;;;;;;18.33;3.83;;;7.50;99.90;;;;;;5070182;28;20104;-55
2024/02/08 12:44:27;;;;;;;9.73;3.80;;;7.50;99.90;;;;;;5076018;28;20217;-55
2024/02/08 12:46:54;;;;;;;19.13;4.95;;;7.40;99.90;;;;;;5075838;28;20074;-54
2024/02/08 12:49:22;;;;;;;10.68;4.28;;;7.30;99.90;;;;;;5072485;28;20017;-56
2024/02/08 12:51:49;;;;;;;11.18;3.40;;;7.30;99.90;;;;;;5078224;28;20039;-54
2024/02/08 12:54:15;;;;;;;9.25;4.00;;;7.20;99.90;;;;;;5071960;28;20039;-55
2024/02/08 12:56:45;;;;;;;25.30;7.30;;;7.20;99.90;;;;;;5076800;28;20423;-55
2024/02/08 12:59:11;;;;;;;47.47;26.13;;;7.10;99.90;;;;;;5074297;28;20024;-56
2024/02/08 13:01:41;;;;;;;12.27;4.82;;;7.10;99.90;;;;;;5071187;28;20027;-55
2024/02/08 13:04:07;;;;;;;12.30;4.65;;;7.00;99.90;;;;;;5070752;28;20061;-55
2024/02/08 13:06:33;;;;;;;16.95;4.93;;;7.00;99.90;;;;;;5068885;28;20035;-54
2024/02/08 13:11:49;;;;;;;8.25;2.63;;;6.90;99.90;;;;;;5067206;28;20322;-56
2024/02/08 13:14:18;;;;;;;17.90;5.03;;;6.90;99.90;;;;;;5067699;28;20029;-55
2024/02/08 13:16:44;;;;;;;16.40;4.45;;;6.70;99.90;;;;;;5067107;28;20208;-55
2024/02/08 13:19:13;;;;;;;13.25;4.30;;;6.70;99.90;;;;;;5073259;28;20495;-55
2024/02/08 13:21:43;;;;;;;15.45;4.97;;;6.60;99.90;;;;;;5069337;28;20159;-55
2024/02/08 13:24:09;;;;;;;10.82;3.38;;;6.70;99.90;;;;;;5074081;28;20016;-56
2024/02/08 13:26:36;;;;;;;13.65;4.72;;;6.70;99.90;;;;;;5068554;28;20042;-56
2024/02/08 13:29:02;;;;;;;12.30;4.20;;;6.60;99.90;;;;;;5069510;28;20020;-54
2024/02/08 13:31:28;;;;;;;18.10;4.82;;;6.60;99.90;;;;;;5072217;28;20414;-55
2024/02/08 13:33:55;;;;;;;15.70;5.00;;;6.50;99.90;;;;;;5070863;28;20048;-56
2024/02/08 13:36:25;;;;;;;17.75;4.25;;;6.50;99.90;;;;;;5068269;28;20488;-55
2024/02/08 13:38:51;;;;;;;10.82;4.22;;;6.40;99.90;;;;;;5070126;28;20044;-55
2024/02/08 13:41:17;;;;;;;10.02;4.22;;;6.40;99.90;;;;;;5072317;28;20056;-55
2024/02/08 13:43:46;;;;;;;15.23;4.18;;;6.40;99.90;;;;;;5070901;28;20104;-54
2024/02/08 13:46:13;;;;;;;11.98;4.68;;;6.40;99.90;;;;;;5071146;28;20425;-56
2024/02/08 13:48:38;;;;;;;9.77;3.47;;;6.40;99.90;;;;;;5069093;28;20028;-55
2024/02/08 13:51:07;;;;;;;9.77;3.75;;;6.40;99.90;;;;;;5070529;28;20270;-55
2024/02/08 13:53:35;;;;;;;14.70;3.78;;;6.30;99.90;;;;;;5068103;28;20073;-55
2024/02/08 13:56:05;;;;;;;10.23;3.13;;;6.30;99.90;;;;;;5070890;28;20141;-56
2024/02/08 13:58:35;;;;;;;11.82;3.00;;;6.30;99.90;;;;;;5069137;28;20016;-56
2024/02/08 14:01:01;;;;;;;12.13;4.18;;;6.30;99.90;;;;;;5071541;28;20036;-55
2024/02/08 14:03:29;;;;;;;17.88;6.28;;;6.30;99.90;;;;;;5070166;28;20047;-56
2024/02/08 14:05:55;;;;;;;12.20;4.60;;;6.20;99.90;;;;;;5067609;28;20120;-56
2024/02/08 14:08:23;;;;;;;13.80;4.18;;;6.20;99.90;;;;;;5071541;28;20123;-55
2024/02/08 14:10:49;;;;;;;15.45;3.55;;;6.10;99.90;;;;;;5072929;28;20494;-55
2024/02/08 14:13:16;;;;;;;13.23;3.55;;;6.10;99.90;;;;;;5069609;28;20127;-54
2024/02/08 14:15:48;;;;;;;10.90;3.60;;;6.10;99.90;;;;;;5070518;28;20012;-56
2024/02/08 14:18:30;;;;;;;11.93;3.10;;;6.00;99.90;;;;;;5067722;28;20027;-55
2024/02/08 14:20:56;;;;;;;14.10;4.03;;;6.00;99.90;;;;;;5070682;28;20029;-54
2024/02/08 14:23:38;;;;;;;11.85;3.20;;;6.00;99.90;;;;;;5069689;28;20029;-55
2024/02/08 14:28:47;;;;;;;9.77;3.42;;;5.90;99.90;;;;;;5062555;28;20060;-54
2024/02/08 14:31:16;;;;;;;14.93;4.00;;;5.90;99.90;;;;;;5067631;28;20048;-56
2024/02/08 14:33:42;;;;;;;17.85;4.30;;;5.90;99.90;;;;;;5067041;28;20454;-55
2024/02/08 14:36:09;;;;;;;13.43;3.88;;;5.80;99.90;;;;;;5066299;28;20027;-55
2024/02/08 14:38:36;;;;;;;13.48;3.58;;;5.80;99.90;;;;;;5069229;28;20028;-54
2024/02/08 14:41:04;;;;;;;15.05;4.35;;;5.70;99.90;;;;;;5069191;28;20036;-55
2024/02/08 14:43:32;;;;;;;11.05;3.78;;;5.70;99.90;;;;;;5066306;28;20044;-55
2024/02/08 14:46:02;;;;;;;25.55;5.63;;;5.70;99.90;;;;;;5073170;28;20111;-54
2024/02/08 14:48:28;;;;;;;21.80;4.25;;;5.70;99.90;;;;;;5066694;28;20028;-55
2024/02/08 14:50:58;;;;;;;10.45;3.67;;;5.70;99.90;;;;;;5069031;28;20021;-55
2024/02/08 14:53:24;;;;;;;14.13;4.10;;;5.60;99.90;;;;;;5063943;28;20510;-55
2024/02/08 14:55:52;;;;;;;18.65;5.68;;;5.70;99.90;;;;;;5070748;28;20099;-55
2024/02/08 14:58:33;;;;;;;11.68;4.22;;;5.60;99.90;;;;;;5069298;28;20435;-55
2024/02/08 15:01:08;;;;;;;14.88;4.32;;;5.60;99.90;;;;;;5067216;28;20037;-55
2024/02/08 15:03:49;;;;;;;10.15;3.65;;;5.60;99.90;;;;;;5066531;28;20104;-55
2024/02/08 15:11:57;;;;;;;14.23;3.45;;;5.50;99.90;;;;;;5069339;28;20042;-54
2024/02/08 15:14:35;;;;;;;13.57;3.58;;;5.40;99.90;;;;;;5070722;28;20382;-54
2024/02/08 15:17:07;;;;;;;8.75;1.88;;;5.40;99.90;;;;;;5069610;28;20028;-55
2024/02/08 15:19:34;;;;;;;4.13;1.13;;;5.30;99.90;;;;;;5067328;28;20074;-56
2024/02/08 15:22:18;;;;;;;2.78;0.98;;;5.30;99.90;;;;;;5070739;28;20153;-52
2024/02/08 15:24:46;;;;;;;5.15;2.08;;;5.20;99.90;;;;;;5066422;28;20035;-52